^^
Saratoga-Weather Station Historical Data
Daily Summary for March 3, 2021 Units:  Both    English   Metric
Daily Weekly Monthly Yearly Custom
  High: Low: Average:
Temperature: 59.2 °F /  15.1 °C 34.5 °F /  1.4 °C 47.5 °F /  8.6 °C
Dew Point: 38.8 °F /  3.8 °C 31.6 °F /  -0.2 °C 34.9 °F /  1.6 °C
Humidity: 90% 39% 64%
Wind Speed: 10.1mph /  16.3km/h - 1.5mph /  2.4km/h
Wind Gust: 13mph /  20.9km/h - -
Wind- - WSW
Pressure: 30.2 in /  1022.7 hPa 29.9 in /  1011.5 hPa -
Precipitation: 0 in /  0.0 mm    
Historical Graphs
 
 
Tabular Data for March 3, 2021
Time Temperature Dew Point Pressure Wind Wind Speed Wind Gust Humidity Rainfall Rate (Hourly) solar
00:01 41.5 °F /  5.3 °C 34.5 °F /  1.4 °C 30.2in /  1021.0hPa NW 0.9mph /  1.4km/h 1mph /  1.6km/h 76% 0in /  0.0mm 0 W/m2
00:06 41.4 °F /  5.2 °C 34.3 °F /  1.3 °C 30.2in /  1021.0hPa Calm     76% 0in /  0.0mm 0 W/m2
00:11 41 °F /  5 °C 34 °F /  1.1 °C 30.2in /  1021.0hPa Calm     76% 0in /  0.0mm 0 W/m2
00:16 40.8 °F /  4.9 °C 34.2 °F /  1.2 °C 30.2in /  1021.0hPa Calm     77% 0in /  0.0mm 0 W/m2
00:21 40.6 °F /  4.8 °C 34 °F /  1.1 °C 30.2in /  1021.0hPa Calm     77% 0in /  0.0mm 0 W/m2
00:26 40.5 °F /  4.7 °C 34.2 °F /  1.2 °C 30.2in /  1021.0hPa NW 0.9mph /  1.4km/h 1mph /  1.6km/h 78% 0in /  0.0mm 0 W/m2
00:31 40.3 °F /  4.6 °C 34 °F /  1.1 °C 30.2in /  1021.0hPa NW 0.9mph /  1.4km/h 2mph /  3.2km/h 78% 0in /  0.0mm 0 W/m2
00:36 40.1 °F /  4.5 °C 33.8 °F /  1 °C 30.2in /  1021.0hPa NW 0.9mph /  1.4km/h 1mph /  1.6km/h 78% 0in /  0.0mm 0 W/m2
00:41 40.1 °F /  4.5 °C 33.8 °F /  1 °C 30.2in /  1021.0hPa WNW 0.9mph /  1.4km/h 3mph /  4.8km/h 78% 0in /  0.0mm 0 W/m2
00:46 40.5 °F /  4.7 °C 34.2 °F /  1.2 °C 30.2in /  1021.0hPa WNW 0.9mph /  1.4km/h 1mph /  1.6km/h 78% 0in /  0.0mm 0 W/m2
00:51 40.5 °F /  4.7 °C 34.2 °F /  1.2 °C 30.2in /  1021.3hPa WNW 2mph /  3.2km/h 3mph /  4.8km/h 78% 0in /  0.0mm 0 W/m2
00:56 40.5 °F /  4.7 °C 34.2 °F /  1.2 °C 30.2in /  1021.3hPa Calm   1mph /  1.6km/h 78% 0in /  0.0mm 0 W/m2
01:01 40.5 °F /  4.7 °C 33.8 °F /  1 °C 30.2in /  1021.3hPa WNW 0.9mph /  1.4km/h 1mph /  1.6km/h 77% 0in /  0.0mm 0 W/m2
01:06 40.5 °F /  4.7 °C 33.8 °F /  1 °C 30.2in /  1021.3hPa WNW 2mph /  3.2km/h 2mph /  3.2km/h 77% 0in /  0.0mm 0 W/m2
01:11 40.3 °F /  4.6 °C 33.6 °F /  0.9 °C 30.2in /  1021.3hPa WNW 0.9mph /  1.4km/h 1mph /  1.6km/h 77% 0in /  0.0mm 0 W/m2
01:16 40.3 °F /  4.6 °C 34 °F /  1.1 °C 30.2in /  1021.3hPa WNW 0.9mph /  1.4km/h 1mph /  1.6km/h 78% 0in /  0.0mm 0 W/m2
01:21 40.1 °F /  4.5 °C 33.8 °F /  1 °C 30.2in /  1021.3hPa Calm   1mph /  1.6km/h 78% 0in /  0.0mm 0 W/m2
01:26 39.9 °F /  4.4 °C 33.6 °F /  0.9 °C 30.2in /  1021.3hPa Calm     78% 0in /  0.0mm 0 W/m2
01:31 39.9 °F /  4.4 °C 33.6 °F /  0.9 °C 30.2in /  1021.3hPa Calm     78% 0in /  0.0mm 0 W/m2
01:36 39.6 °F /  4.2 °C 33.6 °F /  0.9 °C 30.2in /  1021.3hPa Calm     79% 0in /  0.0mm 0 W/m2
01:41 39.4 °F /  4.1 °C 33.4 °F /  0.8 °C 30.2in /  1021.3hPa Calm     79% 0in /  0.0mm 0 W/m2
01:46 39.2 °F /  4 °C 33.6 °F /  0.9 °C 30.2in /  1021.3hPa WNW 0.9mph /  1.4km/h 2mph /  3.2km/h 80% 0in /  0.0mm 0 W/m2
01:52 38.8 °F /  3.8 °C 33.3 °F /  0.7 °C 30.2in /  1021.3hPa WNW 0.9mph /  1.4km/h 1mph /  1.6km/h 80% 0in /  0.0mm 0 W/m2
01:57 38.7 °F /  3.7 °C 33.3 °F /  0.7 °C 30.2in /  1021.3hPa Calm     81% 0in /  0.0mm 0 W/m2
02:02 38.5 °F /  3.6 °C 33.1 °F /  0.6 °C 30.2in /  1021.3hPa WNW 0.9mph /  1.4km/h 1mph /  1.6km/h 81% 0in /  0.0mm 0 W/m2
02:07 38.5 °F /  3.6 °C 33.4 °F /  0.8 °C 30.2in /  1021.3hPa Calm   2mph /  3.2km/h 82% 0in /  0.0mm 0 W/m2
02:12 38.3 °F /  3.5 °C 33.3 °F /  0.7 °C 30.2in /  1021.3hPa Calm   1mph /  1.6km/h 82% 0in /  0.0mm 0 W/m2
02:17 38.1 °F /  3.4 °C 33.1 °F /  0.6 °C 30.2in /  1021.3hPa Calm   2mph /  3.2km/h 82% 0in /  0.0mm 0 W/m2
02:22 38.1 °F /  3.4 °C 33.1 °F /  0.6 °C 30.2in /  1021.3hPa Calm   1mph /  1.6km/h 82% 0in /  0.0mm 0 W/m2
02:27 37.9 °F /  3.3 °C 32.9 °F /  0.5 °C 30.2in /  1021.3hPa Calm     82% 0in /  0.0mm 0 W/m2
02:32 37.8 °F /  3.2 °C 32.7 °F /  0.4 °C 30.2in /  1021.3hPa Calm     82% 0in /  0.0mm 0 W/m2
02:37 37.8 °F /  3.2 °C 33.1 °F /  0.6 °C 30.2in /  1021.3hPa Calm     83% 0in /  0.0mm 0 W/m2
02:42 37.6 °F /  3.1 °C 32.9 °F /  0.5 °C 30.2in /  1021.3hPa Calm     83% 0in /  0.0mm 0 W/m2
02:47 37.4 °F /  3 °C 32.7 °F /  0.4 °C 30.2in /  1021.3hPa Calm     83% 0in /  0.0mm 0 W/m2
02:52 37.2 °F /  2.9 °C 32.5 °F /  0.3 °C 30.2in /  1021.3hPa Calm     83% 0in /  0.0mm 0 W/m2
02:57 37 °F /  2.8 °C 32.7 °F /  0.4 °C 30.2in /  1021.3hPa Calm     84% 0in /  0.0mm 0 W/m2
03:02 36.9 °F /  2.7 °C 32.5 °F /  0.3 °C 30.2in /  1021.3hPa Calm     84% 0in /  0.0mm 0 W/m2
03:07 36.9 °F /  2.7 °C 32.7 °F /  0.4 °C 30.2in /  1021.3hPa Calm     85% 0in /  0.0mm 0 W/m2
03:12 36.7 °F /  2.6 °C 32.5 °F /  0.3 °C 30.2in /  1021.3hPa Calm     85% 0in /  0.0mm 0 W/m2
03:17 36.5 °F /  2.5 °C 32.4 °F /  0.2 °C 30.2in /  1021.3hPa Calm   1mph /  1.6km/h 85% 0in /  0.0mm 0 W/m2
03:22 36.3 °F /  2.4 °C 32.2 °F /  0.1 °C 30.2in /  1021.3hPa Calm     85% 0in /  0.0mm 0 W/m2
03:27 36.1 °F /  2.3 °C 32 °F /  0 °C 30.2in /  1021.3hPa Calm   1mph /  1.6km/h 85% 0in /  0.0mm 0 W/m2
03:32 36 °F /  2.2 °C 31.8 °F /  -0.1 °C 30.2in /  1021.3hPa Calm     85% 0in /  0.0mm 0 W/m2
03:37 36 °F /  2.2 °C 32.2 °F /  0.1 °C 30.2in /  1021.3hPa Calm     86% 0in /  0.0mm 0 W/m2
03:42 35.8 °F /  2.1 °C 32 °F /  0 °C 30.2in /  1021.3hPa Calm     86% 0in /  0.0mm 0 W/m2
03:47 35.8 °F /  2.1 °C 32.4 °F /  0.2 °C 30.2in /  1021.3hPa Calm     87% 0in /  0.0mm 0 W/m2
03:52 35.8 °F /  2.1 °C 32.4 °F /  0.2 °C 30.2in /  1021.7hPa Calm     87% 0in /  0.0mm 0 W/m2
03:57 35.6 °F /  2 °C 32.2 °F /  0.1 °C 30.2in /  1021.7hPa Calm     87% 0in /  0.0mm 0 W/m2
04:02 35.4 °F /  1.9 °C 32 °F /  0 °C 30.2in /  1021.3hPa Calm     87% 0in /  0.0mm 0 W/m2
04:07 35.4 °F /  1.9 °C 32 °F /  0 °C 30.2in /  1021.7hPa Calm     87% 0in /  0.0mm 0 W/m2
04:12 35.2 °F /  1.8 °C 32 °F /  0 °C 30.2in /  1021.3hPa Calm   1mph /  1.6km/h 88% 0in /  0.0mm 0 W/m2
04:17 35.2 °F /  1.8 °C 32 °F /  0 °C 30.2in /  1021.7hPa Calm     88% 0in /  0.0mm 0 W/m2
04:22 35.2 °F /  1.8 °C 32 °F /  0 °C 30.2in /  1021.3hPa Calm     88% 0in /  0.0mm 0 W/m2
04:27 35.1 °F /  1.7 °C 31.8 °F /  -0.1 °C 30.2in /  1021.7hPa Calm     88% 0in /  0.0mm 0 W/m2
04:32 35.1 °F /  1.7 °C 31.8 °F /  -0.1 °C 30.2in /  1021.7hPa Calm     88% 0in /  0.0mm 0 W/m2
04:37 35.1 °F /  1.7 °C 31.8 °F /  -0.1 °C 30.2in /  1021.7hPa Calm     88% 0in /  0.0mm 0 W/m2
04:42 35.1 °F /  1.7 °C 32.2 °F /  0.1 °C 30.2in /  1021.7hPa Calm     89% 0in /  0.0mm 0 W/m2
04:47 35.1 °F /  1.7 °C 32.2 °F /  0.1 °C 30.2in /  1021.7hPa Calm     89% 0in /  0.0mm 0 W/m2
04:52 35.1 °F /  1.7 °C 32.2 °F /  0.1 °C 30.2in /  1021.7hPa Calm     89% 0in /  0.0mm 0 W/m2
04:57 35.1 °F /  1.7 °C 32.2 °F /  0.1 °C 30.2in /  1021.3hPa Calm   1mph /  1.6km/h 89% 0in /  0.0mm 0 W/m2
05:02 35.1 °F /  1.7 °C 31.8 °F /  -0.1 °C 30.2in /  1021.7hPa Calm     88% 0in /  0.0mm 0 W/m2
05:07 35.1 °F /  1.7 °C 32.2 °F /  0.1 °C 30.2in /  1021.7hPa Calm     89% 0in /  0.0mm 0 W/m2
05:12 35.1 °F /  1.7 °C 32.2 °F /  0.1 °C 30.2in /  1021.7hPa Calm     89% 0in /  0.0mm 0 W/m2
05:17 35.2 °F /  1.8 °C 32.4 °F /  0.2 °C 30.2in /  1021.7hPa Calm     89% 0in /  0.0mm 0 W/m2
05:22 35.2 °F /  1.8 °C 32.4 °F /  0.2 °C 30.2in /  1021.7hPa Calm     89% 0in /  0.0mm 0 W/m2
05:27 35.4 °F /  1.9 °C 32.5 °F /  0.3 °C 30.2in /  1021.7hPa Calm     89% 0in /  0.0mm 0 W/m2
05:32 35.4 °F /  1.9 °C 32.5 °F /  0.3 °C 30.2in /  1021.7hPa Calm     89% 0in /  0.0mm 0 W/m2
05:37 35.2 °F /  1.8 °C 32.4 °F /  0.2 °C 30.2in /  1021.7hPa Calm     89% 0in /  0.0mm 0 W/m2
05:42 35.2 °F /  1.8 °C 32 °F /  0 °C 30.2in /  1021.7hPa Calm     88% 0in /  0.0mm 0 W/m2
05:47 35.2 °F /  1.8 °C 32.4 °F /  0.2 °C 30.2in /  1021.7hPa Calm     89% 0in /  0.0mm 0 W/m2
05:52 35.1 °F /  1.7 °C 32.2 °F /  0.1 °C 30.2in /  1021.7hPa Calm   1mph /  1.6km/h 89% 0in /  0.0mm 0 W/m2
05:57 35.1 °F /  1.7 °C 32.2 °F /  0.1 °C 30.2in /  1021.7hPa WNW 0.9mph /  1.4km/h 2mph /  3.2km/h 89% 0in /  0.0mm 0 W/m2
06:02 35.1 °F /  1.7 °C 32.2 °F /  0.1 °C 30.2in /  1022.0hPa Calm   1mph /  1.6km/h 89% 0in /  0.0mm 0 W/m2
06:07 35.1 °F /  1.7 °C 32.2 °F /  0.1 °C 30.2in /  1022.0hPa Calm     89% 0in /  0.0mm 0 W/m2
06:12 35.1 °F /  1.7 °C 32.2 °F /  0.1 °C 30.2in /  1022.0hPa Calm   1mph /  1.6km/h 89% 0in /  0.0mm 5 W/m2
06:17 34.9 °F /  1.6 °C 32 °F /  0 °C 30.2in /  1022.0hPa Calm     89% 0in /  0.0mm 7 W/m2
06:22 34.9 °F /  1.6 °C 32 °F /  0 °C 30.2in /  1022.0hPa Calm   1mph /  1.6km/h 89% 0in /  0.0mm 9 W/m2
06:27 34.7 °F /  1.5 °C 31.8 °F /  -0.1 °C 30.2in /  1022.0hPa Calm     89% 0in /  0.0mm 12 W/m2
06:32 34.5 °F /  1.4 °C 31.6 °F /  -0.2 °C 30.2in /  1022.0hPa Calm     89% 0in /  0.0mm 14 W/m2
06:37 34.5 °F /  1.4 °C 31.6 °F /  -0.2 °C 30.2in /  1022.0hPa Calm     89% 0in /  0.0mm 18 W/m2
06:42 34.5 °F /  1.4 °C 31.6 °F /  -0.2 °C 30.2in /  1022.0hPa WNW 0.9mph /  1.4km/h 1mph /  1.6km/h 89% 0in /  0.0mm 21 W/m2
06:47 34.7 °F /  1.5 °C 32 °F /  0 °C 30.2in /  1022.0hPa Calm   1mph /  1.6km/h 90% 0in /  0.0mm 28 W/m2
06:52 34.9 °F /  1.6 °C 32.2 °F /  0.1 °C 30.2in /  1022.0hPa Calm     90% 0in /  0.0mm 30 W/m2
06:57 34.9 °F /  1.6 °C 32.2 °F /  0.1 °C 30.2in /  1022.0hPa Calm     90% 0in /  0.0mm 35 W/m2
07:02 35.1 °F /  1.7 °C 32.4 °F /  0.2 °C 30.2in /  1022.4hPa Calm     90% 0in /  0.0mm 37 W/m2
07:07 35.1 °F /  1.7 °C 32.4 °F /  0.2 °C 30.2in /  1022.4hPa Calm     90% 0in /  0.0mm 39 W/m2
07:13 35.2 °F /  1.8 °C 32.5 °F /  0.3 °C 30.2in /  1022.4hPa Calm     90% 0in /  0.0mm 40 W/m2
07:18 35.6 °F /  2 °C 32.9 °F /  0.5 °C 30.2in /  1022.4hPa Calm     90% 0in /  0.0mm 33 W/m2
07:23 35.8 °F /  2.1 °C 33.1 °F /  0.6 °C 30.2in /  1022.4hPa Calm     90% 0in /  0.0mm 32 W/m2
07:28 36 °F /  2.2 °C 33.3 °F /  0.7 °C 30.2in /  1022.4hPa Calm     90% 0in /  0.0mm 32 W/m2
07:33 36.1 °F /  2.3 °C 33.3 °F /  0.7 °C 30.2in /  1022.4hPa Calm     89% 0in /  0.0mm 33 W/m2
07:38 36.1 °F /  2.3 °C 33.3 °F /  0.7 °C 30.2in /  1022.4hPa Calm     89% 0in /  0.0mm 40 W/m2
07:43 36.3 °F /  2.4 °C 33.4 °F /  0.8 °C 30.2in /  1022.4hPa Calm     89% 0in /  0.0mm 44 W/m2
07:48 36.7 °F /  2.6 °C 33.8 °F /  1 °C 30.2in /  1022.4hPa Calm     89% 0in /  0.0mm 46 W/m2
07:53 36.9 °F /  2.7 °C 34 °F /  1.1 °C 30.2in /  1022.4hPa Calm     89% 0in /  0.0mm 47 W/m2
07:58 37.2 °F /  2.9 °C 34.3 °F /  1.3 °C 30.2in /  1022.4hPa Calm     89% 0in /  0.0mm 51 W/m2
08:03 37.8 °F /  3.2 °C 34.5 °F /  1.4 °C 30.2in /  1022.7hPa Calm     88% 0in /  0.0mm 53 W/m2
08:08 38.5 °F /  3.6 °C 35.2 °F /  1.8 °C 30.2in /  1022.4hPa Calm   2mph /  3.2km/h 88% 0in /  0.0mm 53 W/m2
08:13 39.6 °F /  4.2 °C 36 °F /  2.2 °C 30.2in /  1022.7hPa ENE 0.9mph /  1.4km/h 3mph /  4.8km/h 87% 0in /  0.0mm 54 W/m2
08:18 40.6 °F /  4.8 °C 36.1 °F /  2.3 °C 30.2in /  1022.7hPa ENE 0.9mph /  1.4km/h 1mph /  1.6km/h 84% 0in /  0.0mm 56 W/m2
08:23 41.2 °F /  5.1 °C 36.1 °F /  2.3 °C 30.2in /  1022.7hPa Calm   3mph /  4.8km/h 82% 0in /  0.0mm 58 W/m2
08:28 42.1 °F /  5.6 °C 36.7 °F /  2.6 °C 30.2in /  1022.4hPa Calm   2mph /  3.2km/h 81% 0in /  0.0mm 62 W/m2
08:33 42.8 °F /  6 °C 36.7 °F /  2.6 °C 30.2in /  1022.7hPa ENE 0.9mph /  1.4km/h 2mph /  3.2km/h 79% 0in /  0.0mm 62 W/m2
08:38 43.2 °F /  6.2 °C 36.7 °F /  2.6 °C 30.2in /  1022.7hPa ENE 2mph /  3.2km/h 3mph /  4.8km/h 78% 0in /  0.0mm 76 W/m2
08:43 43.3 °F /  6.3 °C 36.7 °F /  2.6 °C 30.2in /  1022.7hPa ENE 0.9mph /  1.4km/h 4mph /  6.4km/h 77% 0in /  0.0mm 181 W/m2
08:48 43.5 °F /  6.4 °C 36.9 °F /  2.7 °C 30.2in /  1022.4hPa ENE 2.9mph /  4.7km/h 3mph /  4.8km/h 77% 0in /  0.0mm 276 W/m2
08:53 43.9 °F /  6.6 °C 36.9 °F /  2.7 °C 30.2in /  1022.4hPa ENE 2.9mph /  4.7km/h 4mph /  6.4km/h 76% 0in /  0.0mm 329 W/m2
08:58 44.2 °F /  6.8 °C 36.9 °F /  2.7 °C 30.2in /  1022.4hPa ESE 2mph /  3.2km/h 4mph /  6.4km/h 75% 0in /  0.0mm 350 W/m2
09:03 44.8 °F /  7.1 °C 37.4 °F /  3 °C 30.2in /  1022.7hPa ESE 2mph /  3.2km/h 3mph /  4.8km/h 75% 0in /  0.0mm 355 W/m2
09:08 45.1 °F /  7.3 °C 37.8 °F /  3.2 °C 30.2in /  1022.7hPa SE 2mph /  3.2km/h 2mph /  3.2km/h 75% 0in /  0.0mm 359 W/m2
09:13 45.7 °F /  7.6 °C 37.9 °F /  3.3 °C 30.2in /  1022.7hPa NE 2mph /  3.2km/h 4mph /  6.4km/h 74% 0in /  0.0mm 357 W/m2
09:18 45.9 °F /  7.7 °C 38.1 °F /  3.4 °C 30.2in /  1022.7hPa East 2mph /  3.2km/h 4mph /  6.4km/h 74% 0in /  0.0mm 408 W/m2
09:23 46.4 °F /  8 °C 38.5 °F /  3.6 °C 30.2in /  1022.7hPa ESE 2mph /  3.2km/h 2mph /  3.2km/h 74% 0in /  0.0mm 410 W/m2
09:28 47.1 °F /  8.4 °C 38.5 °F /  3.6 °C 30.2in /  1022.7hPa East 0.9mph /  1.4km/h 3mph /  4.8km/h 72% 0in /  0.0mm 443 W/m2
09:33 47.5 °F /  8.6 °C 38.1 °F /  3.4 °C 30.2in /  1022.4hPa NE 0.9mph /  1.4km/h 4mph /  6.4km/h 70% 0in /  0.0mm 343 W/m2
09:38 47.7 °F /  8.7 °C 38.3 °F /  3.5 °C 30.2in /  1022.4hPa North 0.9mph /  1.4km/h 4mph /  6.4km/h 70% 0in /  0.0mm 83 W/m2
09:43 48 °F /  8.9 °C 38.3 °F /  3.5 °C 30.2in /  1022.4hPa North 2mph /  3.2km/h 4mph /  6.4km/h 69% 0in /  0.0mm 160 W/m2
09:48 48.7 °F /  9.3 °C 38.7 °F /  3.7 °C 30.2in /  1022.4hPa NE 2mph /  3.2km/h 2mph /  3.2km/h 68% 0in /  0.0mm 490 W/m2
09:53 49.3 °F /  9.6 °C 38.8 °F /  3.8 °C 30.2in /  1022.4hPa SE 0.9mph /  1.4km/h 2mph /  3.2km/h 67% 0in /  0.0mm 496 W/m2
09:58 49.6 °F /  9.8 °C 38.3 °F /  3.5 °C 30.2in /  1022.4hPa East 2.9mph /  4.7km/h 4mph /  6.4km/h 65% 0in /  0.0mm 517 W/m2
10:03 49.8 °F /  9.9 °C 38.1 °F /  3.4 °C 30.2in /  1022.4hPa West 2mph /  3.2km/h 3mph /  4.8km/h 64% 0in /  0.0mm 218 W/m2
10:08 50 °F /  10 °C 37.9 °F /  3.3 °C 30.2in /  1022.4hPa NNW 2mph /  3.2km/h 4mph /  6.4km/h 63% 0in /  0.0mm 281 W/m2
10:13 50.5 °F /  10.3 °C 37.9 °F /  3.3 °C 30.2in /  1022.4hPa Calm   6mph /  9.7km/h 62% 0in /  0.0mm 592 W/m2
10:18 51.3 °F /  10.7 °C 38.3 °F /  3.5 °C 30.2in /  1022.4hPa NW 4.9mph /  7.9km/h 8mph /  12.9km/h 61% 0in /  0.0mm 626 W/m2
10:23 51.4 °F /  10.8 °C 37.6 °F /  3.1 °C 30.2in /  1022.4hPa WNW 2.9mph /  4.7km/h 8mph /  12.9km/h 59% 0in /  0.0mm 629 W/m2
10:28 51.6 °F /  10.9 °C 37.4 °F /  3 °C 30.2in /  1022.4hPa West 4mph /  6.4km/h 9mph /  14.5km/h 58% 0in /  0.0mm 603 W/m2
10:33 52 °F /  11.1 °C 36.9 °F /  2.7 °C 30.2in /  1022.4hPa Calm   5mph /  8km/h 56% 0in /  0.0mm 631 W/m2
10:38 52.3 °F /  11.3 °C 36.7 °F /  2.6 °C 30.2in /  1022.4hPa West 4mph /  6.4km/h 10mph /  16.1km/h 55% 0in /  0.0mm 649 W/m2
10:43 52.2 °F /  11.2 °C 37.4 °F /  3 °C 30.2in /  1022.4hPa WNW 0.9mph /  1.4km/h 6mph /  9.7km/h 57% 0in /  0.0mm 656 W/m2
10:48 52.3 °F /  11.3 °C 37 °F /  2.8 °C 30.2in /  1022.4hPa NW 4mph /  6.4km/h 10mph /  16.1km/h 56% 0in /  0.0mm 664 W/m2
10:53 52.2 °F /  11.2 °C 36.9 °F /  2.7 °C 30.2in /  1022.4hPa WNW 2mph /  3.2km/h 11mph /  17.7km/h 56% 0in /  0.0mm 116 W/m2
10:58 52.2 °F /  11.2 °C 37.4 °F /  3 °C 30.2in /  1022.4hPa NW 2mph /  3.2km/h 3mph /  4.8km/h 57% 0in /  0.0mm 726 W/m2
11:03 52.5 °F /  11.4 °C 37.2 °F /  2.9 °C 30.2in /  1022.4hPa WNW 2.9mph /  4.7km/h 8mph /  12.9km/h 56% 0in /  0.0mm 302 W/m2
11:08 53.1 °F /  11.7 °C 38.3 °F /  3.5 °C 30.2in /  1022.4hPa WSW 0.9mph /  1.4km/h 3mph /  4.8km/h 57% 0in /  0.0mm 796 W/m2
11:13 53.6 °F /  12 °C 37.8 °F /  3.2 °C 30.2in /  1022.0hPa West 0.9mph /  1.4km/h 4mph /  6.4km/h 55% 0in /  0.0mm 260 W/m2
11:18 53.6 °F /  12 °C 38.3 °F /  3.5 °C 30.2in /  1022.0hPa NW 2.9mph /  4.7km/h 7mph /  11.3km/h 56% 0in /  0.0mm 881 W/m2
11:23 53.8 °F /  12.1 °C 37.9 °F /  3.3 °C 30.2in /  1022.0hPa NNW 2.9mph /  4.7km/h 6mph /  9.7km/h 55% 0in /  0.0mm 911 W/m2
11:28 53.8 °F /  12.1 °C 37.6 °F /  3.1 °C 30.2in /  1022.0hPa WSW 6.9mph /  11.1km/h 9mph /  14.5km/h 54% 0in /  0.0mm 179 W/m2
11:33 53.2 °F /  11.8 °C 37 °F /  2.8 °C 30.2in /  1022.0hPa WNW 6.9mph /  11.1km/h 8mph /  12.9km/h 54% 0in /  0.0mm 171 W/m2
11:38 52.5 °F /  11.4 °C 36 °F /  2.2 °C 30.2in /  1022.0hPa Calm   7mph /  11.3km/h 53% 0in /  0.0mm 190 W/m2
11:43 52.3 °F /  11.3 °C 35.8 °F /  2.1 °C 30.2in /  1021.7hPa WNW 4mph /  6.4km/h 8mph /  12.9km/h 53% 0in /  0.0mm 947 W/m2
11:48 53.2 °F /  11.8 °C 35.6 °F /  2 °C 30.2in /  1021.7hPa WNW 0.9mph /  1.4km/h 8mph /  12.9km/h 51% 0in /  0.0mm 969 W/m2
11:53 53.8 °F /  12.1 °C 35.1 °F /  1.7 °C 30.2in /  1021.7hPa WNW 2.9mph /  4.7km/h 4mph /  6.4km/h 49% 0in /  0.0mm 265 W/m2
11:58 54.1 °F /  12.3 °C 34.9 °F /  1.6 °C 30.2in /  1021.7hPa NE 2.9mph /  4.7km/h 10mph /  16.1km/h 48% 0in /  0.0mm 933 W/m2
12:03 54.7 °F /  12.6 °C 36.9 °F /  2.7 °C 30.2in /  1021.3hPa WNW 4mph /  6.4km/h 10mph /  16.1km/h 51% 0in /  0.0mm 984 W/m2
12:08 54.9 °F /  12.7 °C 36.5 °F /  2.5 °C 30.2in /  1021.3hPa West 4mph /  6.4km/h 8mph /  12.9km/h 50% 0in /  0.0mm 299 W/m2
12:13 54.5 °F /  12.5 °C 36.7 °F /  2.6 °C 30.2in /  1021.3hPa NW 2mph /  3.2km/h 11mph /  17.7km/h 51% 0in /  0.0mm 870 W/m2
12:18 54.3 °F /  12.4 °C 36.5 °F /  2.5 °C 30.2in /  1021.3hPa ESE 4mph /  6.4km/h 4mph /  6.4km/h 51% 0in /  0.0mm 782 W/m2
12:23 54.9 °F /  12.7 °C 36.5 °F /  2.5 °C 30.2in /  1021.3hPa West 6.9mph /  11.1km/h 12mph /  19.3km/h 50% 0in /  0.0mm 875 W/m2
12:28 54.5 °F /  12.5 °C 35.8 °F /  2.1 °C 30.2in /  1021.3hPa Calm   7mph /  11.3km/h 49% 0in /  0.0mm 492 W/m2
12:33 54.7 °F /  12.6 °C 37.4 °F /  3 °C 30.2in /  1021.3hPa East 4.9mph /  7.9km/h 5mph /  8km/h 52% 0in /  0.0mm 990 W/m2
12:38 55.6 °F /  13.1 °C 36.1 °F /  2.3 °C 30.2in /  1021.0hPa WNW 4.9mph /  7.9km/h 6mph /  9.7km/h 48% 0in /  0.0mm 997 W/m2
12:43 55.9 °F /  13.3 °C 36 °F /  2.2 °C 30.2in /  1021.0hPa North 2mph /  3.2km/h 9mph /  14.5km/h 47% 0in /  0.0mm 526 W/m2
12:48 56.3 °F /  13.5 °C 36.3 °F /  2.4 °C 30.2in /  1021.0hPa WNW 2.9mph /  4.7km/h 4mph /  6.4km/h 47% 0in /  0.0mm 1039 W/m2
12:53 56.7 °F /  13.7 °C 36.7 °F /  2.6 °C 30.2in /  1021.0hPa West 2.9mph /  4.7km/h 5mph /  8km/h 47% 0in /  0.0mm 1107 W/m2
12:58 56.7 °F /  13.7 °C 36.7 °F /  2.6 °C 30.1in /  1020.7hPa WSW 4mph /  6.4km/h 8mph /  12.9km/h 47% 0in /  0.0mm 1071 W/m2
13:03 56.1 °F /  13.4 °C 36.1 °F /  2.3 °C 30.2in /  1021.0hPa South 4.9mph /  7.9km/h 11mph /  17.7km/h 47% 0in /  0.0mm 1123 W/m2
13:08 55.9 °F /  13.3 °C 36.5 °F /  2.5 °C 30.1in /  1020.7hPa SW 6.9mph /  11.1km/h 7mph /  11.3km/h 48% 0in /  0.0mm 318 W/m2
13:13 55.6 °F /  13.1 °C 35.6 °F /  2 °C 30.1in /  1020.7hPa NW 0.9mph /  1.4km/h 8mph /  12.9km/h 47% 0in /  0.0mm 292 W/m2
13:18 55.6 °F /  13.1 °C 34.5 °F /  1.4 °C 30.1in /  1020.3hPa North 2.9mph /  4.7km/h 9mph /  14.5km/h 45% 0in /  0.0mm 313 W/m2
13:23 55.8 °F /  13.2 °C 35.8 °F /  2.1 °C 30.1in /  1020.3hPa NNE 4.9mph /  7.9km/h 8mph /  12.9km/h 47% 0in /  0.0mm 1053 W/m2
13:28 56.3 °F /  13.5 °C 36.3 °F /  2.4 °C 30.1in /  1020.3hPa NW 4.9mph /  7.9km/h 12mph /  19.3km/h 47% 0in /  0.0mm 933 W/m2
13:33 56.8 °F /  13.8 °C 36.3 °F /  2.4 °C 30.1in /  1020.3hPa NE 0.9mph /  1.4km/h 9mph /  14.5km/h 46% 0in /  0.0mm 1028 W/m2
13:38 56.7 °F /  13.7 °C 36.7 °F /  2.6 °C 30.1in /  1020.3hPa NW 4mph /  6.4km/h 12mph /  19.3km/h 47% 0in /  0.0mm 269 W/m2
13:43 56.5 °F /  13.6 °C 35.4 °F /  1.9 °C 30.1in /  1020.3hPa ENE 2mph /  3.2km/h 7mph /  11.3km/h 45% 0in /  0.0mm 283 W/m2
13:48 56.1 °F /  13.4 °C 35.6 °F /  2 °C 30.1in /  1020.3hPa East 2mph /  3.2km/h 12mph /  19.3km/h 46% 0in /  0.0mm 364 W/m2
13:53 55.9 °F /  13.3 °C 36 °F /  2.2 °C 30.1in /  1020.3hPa NW 0.9mph /  1.4km/h 8mph /  12.9km/h 47% 0in /  0.0mm 279 W/m2
13:58 55.8 °F /  13.2 °C 36.3 °F /  2.4 °C 30.1in /  1020.0hPa NW 0.9mph /  1.4km/h 5mph /  8km/h 48% 0in /  0.0mm 264 W/m2
14:03 55.8 °F /  13.2 °C 36.3 °F /  2.4 °C 30.1in /  1020.0hPa NW 0.9mph /  1.4km/h 4mph /  6.4km/h 48% 0in /  0.0mm 232 W/m2
14:08 55.6 °F /  13.1 °C 35.6 °F /  2 °C 30.1in /  1020.0hPa West 0.9mph /  1.4km/h 11mph /  17.7km/h 47% 0in /  0.0mm 220 W/m2
14:13 55.2 °F /  12.9 °C 36 °F /  2.2 °C 30.1in /  1019.6hPa WSW 2.9mph /  4.7km/h 3mph /  4.8km/h 48% 0in /  0.0mm 216 W/m2
14:18 55 °F /  12.8 °C 36.1 °F /  2.3 °C 30.1in /  1019.6hPa Calm   11mph /  17.7km/h 49% 0in /  0.0mm 193 W/m2
14:23 55.2 °F /  12.9 °C 36 °F /  2.2 °C 30.1in /  1019.6hPa West 6mph /  9.7km/h 8mph /  12.9km/h 48% 0in /  0.0mm 202 W/m2
14:28 55.2 °F /  12.9 °C 35.4 °F /  1.9 °C 30.1in /  1019.6hPa West 2mph /  3.2km/h 7mph /  11.3km/h 47% 0in /  0.0mm 199 W/m2
14:33 55.2 °F /  12.9 °C 35.4 °F /  1.9 °C 30.1in /  1019.6hPa WNW 4.9mph /  7.9km/h 9mph /  14.5km/h 47% 0in /  0.0mm 230 W/m2
14:38 55.4 °F /  13 °C 35.4 °F /  1.9 °C 30.1in /  1019.6hPa WNW 2.9mph /  4.7km/h 6mph /  9.7km/h 47% 0in /  0.0mm 185 W/m2
14:43 55.2 °F /  12.9 °C 35.4 °F /  1.9 °C 30.1in /  1019.6hPa West 4mph /  6.4km/h 5mph /  8km/h 47% 0in /  0.0mm 246 W/m2
14:48 55.9 °F /  13.3 °C 37.6 °F /  3.1 °C 30.1in /  1019.3hPa WNW 6.9mph /  11.1km/h 7mph /  11.3km/h 50% 0in /  0.0mm 1032 W/m2
14:53 56.8 °F /  13.8 °C 36.3 °F /  2.4 °C 30.1in /  1019.3hPa WSW 4mph /  6.4km/h 5mph /  8km/h 46% 0in /  0.0mm 197 W/m2
14:58 56.7 °F /  13.7 °C 35.1 °F /  1.7 °C 30.1in /  1019.3hPa West 2mph /  3.2km/h 8mph /  12.9km/h 44% 0in /  0.0mm 255 W/m2
15:03 56.3 °F /  13.5 °C 35.8 °F /  2.1 °C 30.1in /  1019.0hPa WNW 2.9mph /  4.7km/h 8mph /  12.9km/h 46% 0in /  0.0mm 244 W/m2
15:08 56.3 °F /  13.5 °C 35.8 °F /  2.1 °C 30.1in /  1019.0hPa SW 4mph /  6.4km/h 7mph /  11.3km/h 46% 0in /  0.0mm 272 W/m2
15:13 56.5 °F /  13.6 °C 36 °F /  2.2 °C 30.1in /  1019.0hPa WNW 4.9mph /  7.9km/h 10mph /  16.1km/h 46% 0in /  0.0mm 272 W/m2
15:18 56.5 °F /  13.6 °C 36 °F /  2.2 °C 30.1in /  1019.0hPa West 6.9mph /  11.1km/h 10mph /  16.1km/h 46% 0in /  0.0mm 251 W/m2
15:23 56.3 °F /  13.5 °C 34.7 °F /  1.5 °C 30.1in /  1019.0hPa West 6mph /  9.7km/h 10mph /  16.1km/h 44% 0in /  0.0mm 218 W/m2
15:28 56.3 °F /  13.5 °C 35.2 °F /  1.8 °C 30.1in /  1019.0hPa WNW 2.9mph /  4.7km/h 6mph /  9.7km/h 45% 0in /  0.0mm 200 W/m2
15:33 56.5 °F /  13.6 °C 36 °F /  2.2 °C 30.1in /  1019.0hPa WSW 4mph /  6.4km/h 10mph /  16.1km/h 46% 0in /  0.0mm 188 W/m2
15:38 56.1 °F /  13.4 °C 35.6 °F /  2 °C 30.1in /  1018.6hPa WNW 4mph /  6.4km/h 7mph /  11.3km/h 46% 0in /  0.0mm 221 W/m2
15:43 56.3 °F /  13.5 °C 36.3 °F /  2.4 °C 30.1in /  1018.6hPa West 2mph /  3.2km/h 9mph /  14.5km/h 47% 0in /  0.0mm 258 W/m2
15:48 56.8 °F /  13.8 °C 36.3 °F /  2.4 °C 30.1in /  1018.6hPa WSW 2mph /  3.2km/h 8mph /  12.9km/h 46% 0in /  0.0mm 345 W/m2
15:53 57.4 °F /  14.1 °C 36.7 °F /  2.6 °C 30.1in /  1018.3hPa NW 2.9mph /  4.7km/h 10mph /  16.1km/h 46% 0in /  0.0mm 366 W/m2
15:58 57.4 °F /  14.1 °C 36.1 °F /  2.3 °C 30.1in /  1018.3hPa NW 2.9mph /  4.7km/h 8mph /  12.9km/h 45% 0in /  0.0mm 360 W/m2
16:03 57.6 °F /  14.2 °C 35.8 °F /  2.1 °C 30.1in /  1018.3hPa WNW 10.1mph /  16.3km/h 11mph /  17.7km/h 44% 0in /  0.0mm 872 W/m2
16:08 58.5 °F /  14.7 °C 35.4 °F /  1.9 °C 30.1in /  1018.3hPa WNW 2.9mph /  4.7km/h 4mph /  6.4km/h 42% 0in /  0.0mm 759 W/m2
16:13 58.8 °F /  14.9 °C 35.2 °F /  1.8 °C 30.1in /  1018.0hPa NW 2.9mph /  4.7km/h 11mph /  17.7km/h 41% 0in /  0.0mm 265 W/m2
16:18 58.8 °F /  14.9 °C 35.2 °F /  1.8 °C 30.1in /  1018.0hPa WSW 4mph /  6.4km/h 12mph /  19.3km/h 41% 0in /  0.0mm 786 W/m2
16:23 58.6 °F /  14.8 °C 35.1 °F /  1.7 °C 30.1in /  1018.0hPa NNW 4.9mph /  7.9km/h 5mph /  8km/h 41% 0in /  0.0mm 265 W/m2
16:28 58.3 °F /  14.6 °C 34.7 °F /  1.5 °C 30.1in /  1018.0hPa NW 2.9mph /  4.7km/h 12mph /  19.3km/h 41% 0in /  0.0mm 323 W/m2
16:33 58.6 °F /  14.8 °C 35.6 °F /  2 °C 30.1in /  1018.0hPa SW 2.9mph /  4.7km/h 9mph /  14.5km/h 42% 0in /  0.0mm 830 W/m2
16:38 58.8 °F /  14.9 °C 34.5 °F /  1.4 °C 30.1in /  1018.0hPa WNW 4mph /  6.4km/h 8mph /  12.9km/h 40% 0in /  0.0mm 204 W/m2
16:43 58.6 °F /  14.8 °C 34.3 °F /  1.3 °C 30.1in /  1017.6hPa WSW 2mph /  3.2km/h 9mph /  14.5km/h 40% 0in /  0.0mm 362 W/m2
16:48 58.8 °F /  14.9 °C 34.5 °F /  1.4 °C 30.1in /  1017.6hPa NW 2.9mph /  4.7km/h 7mph /  11.3km/h 40% 0in /  0.0mm 200 W/m2
16:53 58.6 °F /  14.8 °C 34.3 °F /  1.3 °C 30.1in /  1017.6hPa NW 2mph /  3.2km/h 8mph /  12.9km/h 40% 0in /  0.0mm 185 W/m2
16:58 58.5 °F /  14.7 °C 34.2 °F /  1.2 °C 30.1in /  1017.6hPa WNW 4.9mph /  7.9km/h 6mph /  9.7km/h 40% 0in /  0.0mm 179 W/m2
17:03 58.1 °F /  14.5 °C 34 °F /  1.1 °C 30in /  1017.3hPa West 6.9mph /  11.1km/h 11mph /  17.7km/h 40% 0in /  0.0mm 220 W/m2
17:08 58.1 °F /  14.5 °C 34.5 °F /  1.4 °C 30in /  1017.3hPa WNW 4mph /  6.4km/h 8mph /  12.9km/h 41% 0in /  0.0mm 327 W/m2
17:13 58.5 °F /  14.7 °C 34.2 °F /  1.2 °C 30in /  1017.3hPa WSW 4.9mph /  7.9km/h 11mph /  17.7km/h 40% 0in /  0.0mm 429 W/m2
17:18 59 °F /  15 °C 35.4 °F /  1.9 °C 30in /  1017.3hPa WNW 6.9mph /  11.1km/h 7mph /  11.3km/h 41% 0in /  0.0mm 281 W/m2
17:23 59.2 °F /  15.1 °C 34.2 °F /  1.2 °C 30in /  1017.3hPa SW 2.9mph /  4.7km/h 8mph /  12.9km/h 39% 0in /  0.0mm 297 W/m2
17:28 59 °F /  15 °C 34.2 °F /  1.2 °C 30in /  1016.9hPa West 6mph /  9.7km/h 13mph /  20.9km/h 39% 0in /  0.0mm 350 W/m2
17:33 58.8 °F /  14.9 °C 35.2 °F /  1.8 °C 30in /  1016.9hPa WNW 0.9mph /  1.4km/h 4mph /  6.4km/h 41% 0in /  0.0mm 267 W/m2
17:38 58.8 °F /  14.9 °C 34.5 °F /  1.4 °C 30in /  1016.9hPa NW 2mph /  3.2km/h 9mph /  14.5km/h 40% 0in /  0.0mm 211 W/m2
17:43 58.5 °F /  14.7 °C 34.2 °F /  1.2 °C 30in /  1016.9hPa South 2mph /  3.2km/h 7mph /  11.3km/h 40% 0in /  0.0mm 200 W/m2
17:48 58.3 °F /  14.6 °C 34.7 °F /  1.5 °C 30in /  1016.9hPa WNW 2.9mph /  4.7km/h 8mph /  12.9km/h 41% 0in /  0.0mm 605 W/m2
17:53 58.8 °F /  14.9 °C 34.5 °F /  1.4 °C 30in /  1016.9hPa WNW 0.9mph /  1.4km/h 7mph /  11.3km/h 40% 0in /  0.0mm 462 W/m2
17:59 59.2 °F /  15.1 °C 35.4 °F /  1.9 °C 30in /  1016.9hPa NNW 4mph /  6.4km/h 5mph /  8km/h 41% 0in /  0.0mm 179 W/m2
18:04 58.8 °F /  14.9 °C 35.2 °F /  1.8 °C 30in /  1016.6hPa ENE 2mph /  3.2km/h 4mph /  6.4km/h 41% 0in /  0.0mm 141 W/m2
18:09 58.5 °F /  14.7 °C 34.9 °F /  1.6 °C 30in /  1016.6hPa NNW 2.9mph /  4.7km/h 8mph /  12.9km/h 41% 0in /  0.0mm 130 W/m2
18:14 57.9 °F /  14.4 °C 34.9 °F /  1.6 °C 30in /  1016.3hPa West 4mph /  6.4km/h 7mph /  11.3km/h 42% 0in /  0.0mm 160 W/m2
18:19 58.1 °F /  14.5 °C 35.8 °F /  2.1 °C 30in /  1016.3hPa Calm   8mph /  12.9km/h 43% 0in /  0.0mm 478 W/m2
18:24 58.5 °F /  14.7 °C 34.9 °F /  1.6 °C 30in /  1016.3hPa WSW 2.9mph /  4.7km/h 7mph /  11.3km/h 41% 0in /  0.0mm 169 W/m2
18:29 58.6 °F /  14.8 °C 35.1 °F /  1.7 °C 30in /  1016.3hPa NW 0.9mph /  1.4km/h 8mph /  12.9km/h 41% 0in /  0.0mm 130 W/m2
18:34 58.5 °F /  14.7 °C 35.4 °F /  1.9 °C 30in /  1016.3hPa North 0.9mph /  1.4km/h 8mph /  12.9km/h 42% 0in /  0.0mm 211 W/m2
18:39 58.5 °F /  14.7 °C 34.9 °F /  1.6 °C 30in /  1015.9hPa WNW 4.9mph /  7.9km/h 9mph /  14.5km/h 41% 0in /  0.0mm 362 W/m2
18:44 58.3 °F /  14.6 °C 35.2 °F /  1.8 °C 30in /  1015.9hPa West 6mph /  9.7km/h 8mph /  12.9km/h 42% 0in /  0.0mm 95 W/m2
18:49 57.9 °F /  14.4 °C 35.6 °F /  2 °C 30in /  1015.9hPa NW 2.9mph /  4.7km/h 9mph /  14.5km/h 43% 0in /  0.0mm 220 W/m2
18:54 57.7 °F /  14.3 °C 35.4 °F /  1.9 °C 30in /  1015.6hPa NNW 2mph /  3.2km/h 6mph /  9.7km/h 43% 0in /  0.0mm 95 W/m2
18:59 57.6 °F /  14.2 °C 35.2 °F /  1.8 °C 30in /  1015.6hPa WNW 8mph /  12.9km/h 8mph /  12.9km/h 43% 0in /  0.0mm 83 W/m2
19:04 57.4 °F /  14.1 °C 35.1 °F /  1.7 °C 30in /  1015.6hPa NNE 2mph /  3.2km/h 3mph /  4.8km/h 43% 0in /  0.0mm 241 W/m2
19:09 57.7 °F /  14.3 °C 35.4 °F /  1.9 °C 30in /  1015.6hPa NNW 2mph /  3.2km/h 8mph /  12.9km/h 43% 0in /  0.0mm 209 W/m2
19:14 57.7 °F /  14.3 °C 36 °F /  2.2 °C 30in /  1015.2hPa NW 2mph /  3.2km/h 6mph /  9.7km/h 44% 0in /  0.0mm 91 W/m2
19:19 57.7 °F /  14.3 °C 35.4 °F /  1.9 °C 30in /  1015.2hPa Calm   8mph /  12.9km/h 43% 0in /  0.0mm 109 W/m2
19:24 57.7 °F /  14.3 °C 35.4 °F /  1.9 °C 30in /  1015.2hPa West 2mph /  3.2km/h 6mph /  9.7km/h 43% 0in /  0.0mm 163 W/m2
19:29 57.9 °F /  14.4 °C 34.9 °F /  1.6 °C 30in /  1015.2hPa WNW 2mph /  3.2km/h 7mph /  11.3km/h 42% 0in /  0.0mm 149 W/m2
19:34 57.9 °F /  14.4 °C 34.9 °F /  1.6 °C 30in /  1015.2hPa NE 2mph /  3.2km/h 5mph /  8km/h 42% 0in /  0.0mm 146 W/m2
19:39 57.7 °F /  14.3 °C 35.4 °F /  1.9 °C 30in /  1015.2hPa Calm   4mph /  6.4km/h 43% 0in /  0.0mm 65 W/m2
19:44 57.7 °F /  14.3 °C 36 °F /  2.2 °C 30in /  1015.2hPa Calm   1mph /  1.6km/h 44% 0in /  0.0mm 56 W/m2
19:49 57.6 °F /  14.2 °C 35.8 °F /  2.1 °C 30in /  1014.9hPa Calm   2mph /  3.2km/h 44% 0in /  0.0mm 39 W/m2
19:54 57.2 °F /  14 °C 34.9 °F /  1.6 °C 30in /  1014.9hPa WNW 2.9mph /  4.7km/h 6mph /  9.7km/h 43% 0in /  0.0mm 49 W/m2
19:59 56.8 °F /  13.8 °C 34.5 °F /  1.4 °C 30in /  1014.9hPa Calm   3mph /  4.8km/h 43% 0in /  0.0mm 32 W/m2
20:04 56.7 °F /  13.7 °C 34.3 °F /  1.3 °C 30in /  1014.9hPa WNW 0.9mph /  1.4km/h 6mph /  9.7km/h 43% 0in /  0.0mm 44 W/m2
20:09 56.7 °F /  13.7 °C 34.3 °F /  1.3 °C 30in /  1014.6hPa SW 2mph /  3.2km/h 9mph /  14.5km/h 43% 0in /  0.0mm 44 W/m2
20:14 56.5 °F /  13.6 °C 35.4 °F /  1.9 °C 30in /  1014.6hPa Calm   2mph /  3.2km/h 45% 0in /  0.0mm 28 W/m2
20:19 56.1 °F /  13.4 °C 35.1 °F /  1.7 °C 30in /  1014.6hPa Calm   9mph /  14.5km/h 45% 0in /  0.0mm 23 W/m2
20:24 55.9 °F /  13.3 °C 34.9 °F /  1.6 °C 30in /  1014.6hPa SW 0.9mph /  1.4km/h 3mph /  4.8km/h 45% 0in /  0.0mm 19 W/m2
20:29 55.4 °F /  13 °C 36 °F /  2.2 °C 30in /  1014.6hPa Calm   1mph /  1.6km/h 48% 0in /  0.0mm 14 W/m2
20:34 55 °F /  12.8 °C 36.7 °F /  2.6 °C 30in /  1014.6hPa SW 0.9mph /  1.4km/h 2mph /  3.2km/h 50% 0in /  0.0mm 12 W/m2
20:39 54.3 °F /  12.4 °C 36.5 °F /  2.5 °C 30in /  1014.6hPa Calm   1mph /  1.6km/h 51% 0in /  0.0mm 9 W/m2
20:44 53.8 °F /  12.1 °C 37 °F /  2.8 °C 30in /  1014.2hPa SW 0.9mph /  1.4km/h 1mph /  1.6km/h 53% 0in /  0.0mm 7 W/m2
20:49 53.1 °F /  11.7 °C 36.9 °F /  2.7 °C 30in /  1014.2hPa Calm   1mph /  1.6km/h 54% 0in /  0.0mm 5 W/m2
20:54 52.3 °F /  11.3 °C 36.7 °F /  2.6 °C 30in /  1014.2hPa SW 0.9mph /  1.4km/h 1mph /  1.6km/h 55% 0in /  0.0mm 0 W/m2
20:59 51.8 °F /  11 °C 36.7 °F /  2.6 °C 30in /  1014.2hPa Calm   2mph /  3.2km/h 56% 0in /  0.0mm 0 W/m2
21:04 51.3 °F /  10.7 °C 36.5 °F /  2.5 °C 30in /  1014.2hPa Calm     57% 0in /  0.0mm 0 W/m2
21:09 50.7 °F /  10.4 °C 36.5 °F /  2.5 °C 29.9in /  1013.9hPa Calm     58% 0in /  0.0mm 0 W/m2
21:14 50.2 °F /  10.1 °C 36.3 °F /  2.4 °C 29.9in /  1013.9hPa Calm     59% 0in /  0.0mm 0 W/m2
21:19 49.6 °F /  9.8 °C 36 °F /  2.2 °C 29.9in /  1013.9hPa Calm     59% 0in /  0.0mm 0 W/m2
21:24 49.3 °F /  9.6 °C 36.3 °F /  2.4 °C 29.9in /  1013.9hPa Calm     61% 0in /  0.0mm 0 W/m2
21:29 48.7 °F /  9.3 °C 36.3 °F /  2.4 °C 29.9in /  1013.9hPa Calm     62% 0in /  0.0mm 0 W/m2
21:34 48.4 °F /  9.1 °C 36 °F /  2.2 °C 29.9in /  1013.9hPa Calm     62% 0in /  0.0mm 0 W/m2
21:39 48 °F /  8.9 °C 35.6 °F /  2 °C 29.9in /  1013.9hPa Calm     62% 0in /  0.0mm 0 W/m2
21:44 47.7 °F /  8.7 °C 36.1 °F /  2.3 °C 29.9in /  1013.9hPa Calm     64% 0in /  0.0mm 0 W/m2
21:49 47.5 °F /  8.6 °C 35.6 °F /  2 °C 29.9in /  1013.9hPa Calm     63% 0in /  0.0mm 0 W/m2
21:54 47.1 °F /  8.4 °C 35.6 °F /  2 °C 29.9in /  1013.9hPa Calm     64% 0in /  0.0mm 0 W/m2
21:59 46.9 °F /  8.3 °C 35.8 °F /  2.1 °C 29.9in /  1013.9hPa Calm     65% 0in /  0.0mm 0 W/m2
22:04 46.9 °F /  8.3 °C 35.8 °F /  2.1 °C 29.9in /  1013.9hPa Calm     65% 0in /  0.0mm 0 W/m2
22:09 46.8 °F /  8.2 °C 36 °F /  2.2 °C 29.9in /  1013.5hPa Calm     66% 0in /  0.0mm 0 W/m2
22:14 46.6 °F /  8.1 °C 35.8 °F /  2.1 °C 29.9in /  1013.5hPa Calm     66% 0in /  0.0mm 0 W/m2
22:19 46.6 °F /  8.1 °C 35.8 °F /  2.1 °C 29.9in /  1013.5hPa Calm     66% 0in /  0.0mm 0 W/m2
22:24 46.4 °F /  8 °C 36 °F /  2.2 °C 29.9in /  1013.5hPa Calm     67% 0in /  0.0mm 0 W/m2
22:29 46.2 °F /  7.9 °C 36 °F /  2.2 °C 29.9in /  1013.2hPa Calm     67% 0in /  0.0mm 0 W/m2
22:34 46.2 °F /  7.9 °C 36 °F /  2.2 °C 29.9in /  1013.2hPa Calm     67% 0in /  0.0mm 0 W/m2
22:39 46 °F /  7.8 °C 35.8 °F /  2.1 °C 29.9in /  1013.2hPa Calm     67% 0in /  0.0mm 0 W/m2
22:44 46 °F /  7.8 °C 36.1 °F /  2.3 °C 29.9in /  1013.2hPa Calm     68% 0in /  0.0mm 0 W/m2
22:49 45.9 °F /  7.7 °C 36 °F /  2.2 °C 29.9in /  1013.2hPa Calm     68% 0in /  0.0mm 0 W/m2
22:54 45.7 °F /  7.6 °C 35.8 °F /  2.1 °C 29.9in /  1013.2hPa Calm     68% 0in /  0.0mm 0 W/m2
22:59 45.7 °F /  7.6 °C 35.8 °F /  2.1 °C 29.9in /  1012.9hPa Calm     68% 0in /  0.0mm 0 W/m2
23:04 45.7 °F /  7.6 °C 35.8 °F /  2.1 °C 29.9in /  1012.9hPa Calm     68% 0in /  0.0mm 0 W/m2
23:09 45.5 °F /  7.5 °C 36 °F /  2.2 °C 29.9in /  1012.5hPa Calm   3mph /  4.8km/h 69% 0in /  0.0mm 0 W/m2
23:14 45.5 °F /  7.5 °C 36 °F /  2.2 °C 29.9in /  1012.5hPa SW 0.9mph /  1.4km/h 2mph /  3.2km/h 69% 0in /  0.0mm 0 W/m2
23:19 45.5 °F /  7.5 °C 36 °F /  2.2 °C 29.9in /  1012.5hPa Calm   3mph /  4.8km/h 69% 0in /  0.0mm 0 W/m2
23:24 45.3 °F /  7.4 °C 35.8 °F /  2.1 °C 29.9in /  1012.5hPa Calm   1mph /  1.6km/h 69% 0in /  0.0mm 0 W/m2
23:29 45.3 °F /  7.4 °C 35.8 °F /  2.1 °C 29.9in /  1012.2hPa Calm   2mph /  3.2km/h 69% 0in /  0.0mm 0 W/m2
23:34 45.3 °F /  7.4 °C 35.8 °F /  2.1 °C 29.9in /  1012.2hPa SW 0.9mph /  1.4km/h 1mph /  1.6km/h 69% 0in /  0.0mm 0 W/m2
23:39 45.3 °F /  7.4 °C 35.8 °F /  2.1 °C 29.9in /  1012.2hPa SW 0.9mph /  1.4km/h 2mph /  3.2km/h 69% 0in /  0.0mm 0 W/m2
23:44 45.7 °F /  7.6 °C 35.8 °F /  2.1 °C 29.9in /  1011.9hPa NW 2mph /  3.2km/h 2mph /  3.2km/h 68% 0in /  0.0mm 0 W/m2
23:49 46.4 °F /  8 °C 36 °F /  2.2 °C 29.9in /  1011.9hPa SSE 0.9mph /  1.4km/h 1mph /  1.6km/h 67% 0in /  0.0mm 0 W/m2
23:54 46.9 °F /  8.3 °C 35.4 °F /  1.9 °C 29.9in /  1011.9hPa Calm   2mph /  3.2km/h 64% 0in /  0.0mm 0 W/m2
23:59 47.8 °F /  8.8 °C 36.3 °F /  2.4 °C 29.9in /  1011.5hPa West 0.9mph /  1.4km/h 3mph /  4.8km/h 64% 0in /  0.0mm 0 W/m2
Juneau County Weather
Compliments of Weather Underground - 4 mb